sensor_id;sensor_type;location;lat;lon;timestamp;pressure;altitude;pressure_sealevel;temperature;humidity
3260;BME280;22469;48.150;14.004;2023-03-23T00:01:56;97626.41;;;12.77;60.93
3260;BME280;22469;48.150;14.004;2023-03-23T00:04:22;97625.09;;;12.68;61.67
3260;BME280;22469;48.150;14.004;2023-03-23T00:06:51;97631.44;;;12.61;61.77
3260;BME280;22469;48.150;14.004;2023-03-23T00:09:17;97634.88;;;12.62;61.51
3260;BME280;22469;48.150;14.004;2023-03-23T00:11:49;97630.59;;;12.61;61.78
3260;BME280;22469;48.150;14.004;2023-03-23T00:14:16;97631.38;;;12.63;61.43
3260;BME280;22469;48.150;14.004;2023-03-23T00:16:48;97625.97;;;12.69;61.14
3260;BME280;22469;48.150;14.004;2023-03-23T00:19:17;97628.44;;;12.70;60.96
3260;BME280;22469;48.150;14.004;2023-03-23T00:21:45;97621.69;;;12.68;61.41
3260;BME280;22469;48.150;14.004;2023-03-23T00:24:12;97629.41;;;12.68;60.82
3260;BME280;22469;48.150;14.004;2023-03-23T00:26:43;97631.97;;;12.68;60.60
3260;BME280;22469;48.150;14.004;2023-03-23T00:29:14;97626.94;;;12.66;60.65
3260;BME280;22469;48.150;14.004;2023-03-23T00:31:48;97629.50;;;12.66;60.55
3260;BME280;22469;48.150;14.004;2023-03-23T00:34:20;97628.66;;;12.66;60.34
3260;BME280;22469;48.150;14.004;2023-03-23T00:36:50;97637.28;;;12.65;60.34
3260;BME280;22469;48.150;14.004;2023-03-23T00:39:23;97628.72;;;12.64;60.51
3260;BME280;22469;48.150;14.004;2023-03-23T00:41:50;97627.16;;;12.62;60.31
3260;BME280;22469;48.150;14.004;2023-03-23T00:44:16;97623.16;;;12.54;60.52
3260;BME280;22469;48.150;14.004;2023-03-23T00:46:47;97617.97;;;12.56;60.34
3260;BME280;22469;48.150;14.004;2023-03-23T00:49:17;97626.59;;;12.55;60.28
3260;BME280;22469;48.150;14.004;2023-03-23T00:51:45;97619.97;;;12.49;60.81
3260;BME280;22469;48.150;14.004;2023-03-23T00:54:12;97609.84;;;12.46;60.83
3260;BME280;22469;48.150;14.004;2023-03-23T00:56:38;97610.81;;;12.44;60.83
3260;BME280;22469;48.150;14.004;2023-03-23T00:59:07;97611.84;;;12.40;60.58
3260;BME280;22469;48.150;14.004;2023-03-23T01:01:33;97604.13;;;12.40;60.67
3260;BME280;22469;48.150;14.004;2023-03-23T01:04:01;97598.38;;;12.35;61.13
3260;BME280;22469;48.150;14.004;2023-03-23T01:06:31;97606.97;;;12.33;60.82
3260;BME280;22469;48.150;14.004;2023-03-23T01:09:01;97597.00;;;12.27;60.95
3260;BME280;22469;48.150;14.004;2023-03-23T01:11:29;97599.75;;;12.23;61.20
3260;BME280;22469;48.150;14.004;2023-03-23T01:13:55;97599.84;;;12.21;61.21
3260;BME280;22469;48.150;14.004;2023-03-23T01:16:21;97600.25;;;12.12;61.72
3260;BME280;22469;48.150;14.004;2023-03-23T01:18:47;97600.47;;;12.07;61.51
3260;BME280;22469;48.150;14.004;2023-03-23T01:21:17;97606.34;;;12.09;61.63
3260;BME280;22469;48.150;14.004;2023-03-23T01:23:44;97597.06;;;12.07;61.51
3260;BME280;22469;48.150;14.004;2023-03-23T01:26:14;97596.28;;;12.05;61.54
3260;BME280;22469;48.150;14.004;2023-03-23T01:28:42;97594.81;;;11.99;61.83
3260;BME280;22469;48.150;14.004;2023-03-23T01:31:13;97595.94;;;11.94;62.05
3260;BME280;22469;48.150;14.004;2023-03-23T01:33:42;97598.56;;;11.92;62.12
3260;BME280;22469;48.150;14.004;2023-03-23T01:36:12;97599.34;;;11.94;61.87
3260;BME280;22469;48.150;14.004;2023-03-23T01:38:42;97593.50;;;11.91;61.72
3260;BME280;22469;48.150;14.004;2023-03-23T01:41:13;97586.75;;;11.88;62.14
3260;BME280;22469;48.150;14.004;2023-03-23T01:44:02;97590.09;;;11.90;62.22
3260;BME280;22469;48.150;14.004;2023-03-23T01:46:32;97584.25;;;11.87;61.92
3260;BME280;22469;48.150;14.004;2023-03-23T01:49:03;97583.41;;;11.86;62.45
3260;BME280;22469;48.150;14.004;2023-03-23T01:51:37;97583.34;;;11.88;62.21
3260;BME280;22469;48.150;14.004;2023-03-23T01:54:09;97580.22;;;11.79;62.78
3260;BME280;22469;48.150;14.004;2023-03-23T01:56:47;97576.81;;;11.79;62.70
3260;BME280;22469;48.150;14.004;2023-03-23T01:59:43;97574.25;;;11.79;62.18
3260;BME280;22469;48.150;14.004;2023-03-23T02:02:12;97569.13;;;11.79;62.57
3260;BME280;22469;48.150;14.004;2023-03-23T02:04:39;97570.88;;;11.78;62.47
3260;BME280;22469;48.150;14.004;2023-03-23T02:07:08;97568.38;;;11.77;62.47
3260;BME280;22469;48.150;14.004;2023-03-23T02:09:35;97565.94;;;11.74;63.31
3260;BME280;22469;48.150;14.004;2023-03-23T02:12:01;97570.38;;;11.70;63.13
3260;BME280;22469;48.150;14.004;2023-03-23T02:14:28;97570.28;;;11.72;62.93
3260;BME280;22469;48.150;14.004;2023-03-23T02:17:10;97560.09;;;11.70;62.90
3260;BME280;22469;48.150;14.004;2023-03-23T02:28:30;97573.13;;;11.66;62.88
3260;BME280;22469;48.150;14.004;2023-03-23T02:33:56;97573.34;;;11.61;63.02
3260;BME280;22469;48.150;14.004;2023-03-23T02:36:41;97560.34;;;11.64;62.74
3260;BME280;22469;48.150;14.004;2023-03-23T02:39:22;97562.31;;;11.59;63.17
3260;BME280;22469;48.150;14.004;2023-03-23T02:42:10;97563.06;;;11.61;62.87
3260;BME280;22469;48.150;14.004;2023-03-23T02:44:41;97572.63;;;11.57;62.78
3260;BME280;22469;48.150;14.004;2023-03-23T02:47:15;97565.06;;;11.54;63.55
3260;BME280;22469;48.150;14.004;2023-03-23T02:49:46;97560.81;;;11.53;62.88
3260;BME280;22469;48.150;14.004;2023-03-23T02:52:19;97567.69;;;11.53;63.18
3260;BME280;22469;48.150;14.004;2023-03-23T02:54:49;97566.22;;;11.47;63.25
3260;BME280;22469;48.150;14.004;2023-03-23T02:57:16;97564.56;;;11.46;63.07
3260;BME280;22469;48.150;14.004;2023-03-23T02:59:43;97575.91;;;11.41;63.19
3260;BME280;22469;48.150;14.004;2023-03-23T03:02:12;97569.50;;;11.30;63.99
3260;BME280;22469;48.150;14.004;2023-03-23T03:05:01;97569.56;;;11.29;63.99
3260;BME280;22469;48.150;14.004;2023-03-23T03:07:36;97573.19;;;11.25;63.85
3260;BME280;22469;48.150;14.004;2023-03-23T03:10:25;97580.16;;;11.21;64.13
3260;BME280;22469;48.150;14.004;2023-03-23T03:18:36;97573.94;;;11.27;63.90
3260;BME280;22469;48.150;14.004;2023-03-23T03:21:07;97573.94;;;11.27;63.71
3260;BME280;22469;48.150;14.004;2023-03-23T03:23:37;97577.28;;;11.29;63.73
3260;BME280;22469;48.150;14.004;2023-03-23T03:26:07;97578.88;;;11.31;63.60
3260;BME280;22469;48.150;14.004;2023-03-23T03:28:36;97581.44;;;11.31;63.07
3260;BME280;22469;48.150;14.004;2023-03-23T03:31:04;97577.91;;;11.34;63.17
3260;BME280;22469;48.150;14.004;2023-03-23T03:33:31;97587.22;;;11.36;63.05
3260;BME280;22469;48.150;14.004;2023-03-23T03:36:01;97579.53;;;11.36;63.09
3260;BME280;22469;48.150;14.004;2023-03-23T03:38:29;97577.78;;;11.37;62.98
3260;BME280;22469;48.150;14.004;2023-03-23T03:40:56;97581.19;;;11.37;63.00
3260;BME280;22469;48.150;14.004;2023-03-23T03:43:22;97583.81;;;11.36;63.52
3260;BME280;22469;48.150;14.004;2023-03-23T03:45:48;97584.56;;;11.38;63.05
3260;BME280;22469;48.150;14.004;2023-03-23T03:48:14;97587.22;;;11.36;63.27
3260;BME280;22469;48.150;14.004;2023-03-23T03:50:40;97586.56;;;11.31;63.46
3260;BME280;22469;48.150;14.004;2023-03-23T03:53:06;97583.25;;;11.29;63.95
3260;BME280;22469;48.150;14.004;2023-03-23T03:55:33;97584.97;;;11.29;63.72
3260;BME280;22469;48.150;14.004;2023-03-23T03:58:03;97586.84;;;11.25;63.54
3260;BME280;22469;48.150;14.004;2023-03-23T04:00:30;97586.84;;;11.25;63.58
3260;BME280;22469;48.150;14.004;2023-03-23T04:02:56;97593.72;;;11.25;63.43
3260;BME280;22469;48.150;14.004;2023-03-23T04:05:25;97594.59;;;11.24;63.56
3260;BME280;22469;48.150;14.004;2023-03-23T04:07:54;97607.88;;;11.13;63.77
3260;BME280;22469;48.150;14.004;2023-03-23T04:10:27;97606.09;;;11.15;63.68
3260;BME280;22469;48.150;14.004;2023-03-23T04:12:54;97614.03;;;11.09;63.82
3260;BME280;22469;48.150;14.004;2023-03-23T04:15:21;97614.94;;;11.08;63.87
3260;BME280;22469;48.150;14.004;2023-03-23T04:17:47;97614.06;;;11.07;63.93
3260;BME280;22469;48.150;14.004;2023-03-23T04:20:13;97612.41;;;11.06;64.52
3260;BME280;22469;48.150;14.004;2023-03-23T04:22:49;97608.22;;;11.04;64.11
3260;BME280;22469;48.150;14.004;2023-03-23T04:25:18;97603.19;;;11.02;64.42
3260;BME280;22469;48.150;14.004;2023-03-23T04:27:49;97605.84;;;10.99;64.35
3260;BME280;22469;48.150;14.004;2023-03-23T04:30:23;97602.59;;;10.96;64.32
3260;BME280;22469;48.150;14.004;2023-03-23T04:32:51;97607.78;;;10.94;64.00
3260;BME280;22469;48.150;14.004;2023-03-23T04:35:19;97608.63;;;10.95;64.29
3260;BME280;22469;48.150;14.004;2023-03-23T04:37:47;97604.38;;;10.94;63.94
3260;BME280;22469;48.150;14.004;2023-03-23T04:40:15;97605.38;;;10.89;63.89
3260;BME280;22469;48.150;14.004;2023-03-23T04:42:43;97606.34;;;10.87;64.16
3260;BME280;22469;48.150;14.004;2023-03-23T04:45:15;97608.97;;;10.85;64.20
3260;BME280;22469;48.150;14.004;2023-03-23T04:47:50;97619.34;;;10.82;64.06
3260;BME280;22469;48.150;14.004;2023-03-23T04:50:26;97611.91;;;10.76;64.40
3260;BME280;22469;48.150;14.004;2023-03-23T04:52:57;97613.69;;;10.74;64.45
3260;BME280;22469;48.150;14.004;2023-03-23T04:55:25;97619.59;;;10.76;64.57
3260;BME280;22469;48.150;14.004;2023-03-23T04:57:51;97626.44;;;10.76;64.49
3260;BME280;22469;48.150;14.004;2023-03-23T05:00:18;97629.09;;;10.74;64.40
3260;BME280;22469;48.150;14.004;2023-03-23T05:02:46;97632.59;;;10.72;65.15
3260;BME280;22469;48.150;14.004;2023-03-23T05:05:17;97627.66;;;10.67;65.12
3260;BME280;22469;48.150;14.004;2023-03-23T05:07:44;97636.19;;;10.67;65.25
3260;BME280;22469;48.150;14.004;2023-03-23T05:10:11;97641.25;;;10.69;65.09
3260;BME280;22469;48.150;14.004;2023-03-23T05:12:38;97647.16;;;10.71;64.91
3260;BME280;22469;48.150;14.004;2023-03-23T05:15:06;97645.44;;;10.72;64.58
3260;BME280;22469;48.150;14.004;2023-03-23T05:17:33;97645.34;;;10.73;65.16
3260;BME280;22469;48.150;14.004;2023-03-23T05:20:00;97630.13;;;10.70;65.16
3260;BME280;22469;48.150;14.004;2023-03-23T05:22:30;97638.69;;;10.69;65.14
3260;BME280;22469;48.150;14.004;2023-03-23T05:24:59;97648.22;;;10.65;65.87
3260;BME280;22469;48.150;14.004;2023-03-23T05:27:28;97649.97;;;10.65;65.75
3260;BME280;22469;48.150;14.004;2023-03-23T05:29:56;97648.06;;;10.70;65.76
3260;BME280;22469;48.150;14.004;2023-03-23T05:32:24;97647.88;;;10.75;65.58
3260;BME280;22469;48.150;14.004;2023-03-23T05:34:58;97644.41;;;10.76;66.08
3260;BME280;22469;48.150;14.004;2023-03-23T05:37:27;97639.25;;;10.77;65.83
3260;BME280;22469;48.150;14.004;2023-03-23T05:39:58;97648.41;;;10.83;65.79
3260;BME280;22469;48.150;14.004;2023-03-23T05:42:35;97654.56;;;10.79;66.29
3260;BME280;22469;48.150;14.004;2023-03-23T05:45:03;97658.84;;;10.78;66.19
3260;BME280;22469;48.150;14.004;2023-03-23T05:47:29;97662.38;;;10.76;66.24
3260;BME280;22469;48.150;14.004;2023-03-23T05:49:56;97660.47;;;10.81;66.24
3260;BME280;22469;48.150;14.004;2023-03-23T05:52:22;97653.41;;;10.86;66.24
3260;BME280;22469;48.150;14.004;2023-03-23T05:54:52;97661.84;;;10.89;66.19
3260;BME280;22469;48.150;14.004;2023-03-23T05:57:18;97675.38;;;10.93;66.35
3260;BME280;22469;48.150;14.004;2023-03-23T05:59:47;97674.66;;;10.89;66.40
3260;BME280;22469;48.150;14.004;2023-03-23T06:02:14;97677.19;;;10.91;66.49
3260;BME280;22469;48.150;14.004;2023-03-23T06:04:40;97681.06;;;11.01;66.21
3260;BME280;22469;48.150;14.004;2023-03-23T06:07:08;97676.47;;;11.09;66.31
3260;BME280;22469;48.150;14.004;2023-03-23T06:09:39;97690.78;;;11.15;66.38
3260;BME280;22469;48.150;14.004;2023-03-23T06:12:06;97691.44;;;11.20;66.21
3260;BME280;22469;48.150;14.004;2023-03-23T06:14:33;97691.06;;;11.29;66.40
3260;BME280;22469;48.150;14.004;2023-03-23T06:16:59;97685.75;;;11.34;66.28
3260;BME280;22469;48.150;14.004;2023-03-23T06:19:25;97690.75;;;11.37;66.30
3260;BME280;22469;48.150;14.004;2023-03-23T06:21:54;97686.88;;;11.49;66.03
3260;BME280;22469;48.150;14.004;2023-03-23T06:24:20;97686.59;;;11.55;65.95
3260;BME280;22469;48.150;14.004;2023-03-23T06:26:47;97691.44;;;11.62;66.00
3260;BME280;22469;48.150;14.004;2023-03-23T06:29:14;97679.22;;;11.68;65.65
3260;BME280;22469;48.150;14.004;2023-03-23T06:31:43;97680.75;;;11.72;65.43
3260;BME280;22469;48.150;14.004;2023-03-23T06:34:11;97678.19;;;11.72;65.47
3260;BME280;22469;48.150;14.004;2023-03-23T06:36:37;97678.16;;;11.73;65.31
3260;BME280;22469;48.150;14.004;2023-03-23T06:39:04;97679.69;;;11.77;65.37
3260;BME280;22469;48.150;14.004;2023-03-23T06:41:31;97685.44;;;11.82;65.50
3260;BME280;22469;48.150;14.004;2023-03-23T06:43:59;97692.09;;;11.88;65.18
3260;BME280;22469;48.150;14.004;2023-03-23T06:46:27;97684.28;;;11.91;65.14
3260;BME280;22469;48.150;14.004;2023-03-23T06:48:55;97690.03;;;11.96;65.36
3260;BME280;22469;48.150;14.004;2023-03-23T06:51:21;97681.75;;;11.90;64.24
3260;BME280;22469;48.150;14.004;2023-03-23T06:53:47;97700.50;;;11.71;64.90
3260;BME280;22469;48.150;14.004;2023-03-23T06:56:13;97701.06;;;11.78;64.53
3260;BME280;22469;48.150;14.004;2023-03-23T06:58:40;97699.13;;;11.84;64.44
3260;BME280;22469;48.150;14.004;2023-03-23T07:01:08;97700.59;;;11.90;64.59
3260;BME280;22469;48.150;14.004;2023-03-23T07:03:35;97700.28;;;11.98;64.82
3260;BME280;22469;48.150;14.004;2023-03-23T07:06:02;97712.78;;;12.05;64.27
3260;BME280;22469;48.150;14.004;2023-03-23T07:08:29;97704.94;;;12.08;64.04
3260;BME280;22469;48.150;14.004;2023-03-23T07:10:56;97713.34;;;12.12;63.92
3260;BME280;22469;48.150;14.004;2023-03-23T07:13:22;97705.25;;;12.21;63.70
3260;BME280;22469;48.150;14.004;2023-03-23T07:15:49;97716.69;;;12.35;64.03
3260;BME280;22469;48.150;14.004;2023-03-23T07:18:16;97722.22;;;12.44;63.10
3260;BME280;22469;48.150;14.004;2023-03-23T07:20:42;97714.19;;;12.52;62.71
3260;BME280;22469;48.150;14.004;2023-03-23T07:23:08;97715.31;;;12.65;62.01
3260;BME280;22469;48.150;14.004;2023-03-23T07:25:35;97718.16;;;12.78;62.02
3260;BME280;22469;48.150;14.004;2023-03-23T07:28:02;97714.75;;;12.59;61.66
3260;BME280;22469;48.150;14.004;2023-03-23T07:30:29;97718.72;;;12.66;61.97
3260;BME280;22469;48.150;14.004;2023-03-23T07:32:56;97719.41;;;12.69;62.70
3260;BME280;22469;48.150;14.004;2023-03-23T07:35:23;97719.06;;;12.96;62.10
3260;BME280;22469;48.150;14.004;2023-03-23T07:37:50;97711.31;;;13.34;62.00
3260;BME280;22469;48.150;14.004;2023-03-23T07:40:18;97697.78;;;13.47;60.38
3260;BME280;22469;48.150;14.004;2023-03-23T07:42:46;97709.22;;;13.77;59.35
3260;BME280;22469;48.150;14.004;2023-03-23T07:45:15;97709.97;;;13.96;58.91
3260;BME280;22469;48.150;14.004;2023-03-23T07:47:41;97701.34;;;14.30;58.34
3260;BME280;22469;48.150;14.004;2023-03-23T07:50:08;97702.66;;;14.55;57.94
3260;BME280;22469;48.150;14.004;2023-03-23T07:52:35;97707.34;;;14.80;57.89
3260;BME280;22469;48.150;14.004;2023-03-23T07:55:04;97711.09;;;14.90;56.88
3260;BME280;22469;48.150;14.004;2023-03-23T07:57:32;97717.16;;;14.89;55.72
3260;BME280;22469;48.150;14.004;2023-03-23T07:59:59;97709.94;;;14.96;55.12
3260;BME280;22469;48.150;14.004;2023-03-23T08:02:25;97717.84;;;15.08;55.21
3260;BME280;22469;48.150;14.004;2023-03-23T08:04:52;97709.56;;;15.17;54.97
3260;BME280;22469;48.150;14.004;2023-03-23T08:07:19;97712.47;;;15.27;55.09
3260;BME280;22469;48.150;14.004;2023-03-23T08:09:47;97712.72;;;15.38;54.46
3260;BME280;22469;48.150;14.004;2023-03-23T08:12:13;97709.09;;;15.57;55.04
3260;BME280;22469;48.150;14.004;2023-03-23T08:14:40;97709.91;;;15.73;54.59
3260;BME280;22469;48.150;14.004;2023-03-23T08:17:07;97714.94;;;15.91;53.74
3260;BME280;22469;48.150;14.004;2023-03-23T08:19:36;97702.56;;;16.10;53.23
3260;BME280;22469;48.150;14.004;2023-03-23T08:22:03;97703.44;;;16.25;52.98
3260;BME280;22469;48.150;14.004;2023-03-23T08:24:30;97691.13;;;16.43;52.49
3260;BME280;22469;48.150;14.004;2023-03-23T08:26:59;97698.53;;;16.63;52.17
3260;BME280;22469;48.150;14.004;2023-03-23T08:29:26;97696.50;;;16.83;51.44
3260;BME280;22469;48.150;14.004;2023-03-23T08:31:52;97688.69;;;16.97;50.23
3260;BME280;22469;48.150;14.004;2023-03-23T08:34:19;97687.88;;;17.09;49.82
3260;BME280;22469;48.150;14.004;2023-03-23T08:36:46;97677.50;;;17.23;50.08
3260;BME280;22469;48.150;14.004;2023-03-23T08:39:13;97678.38;;;17.37;49.85
3260;BME280;22469;48.150;14.004;2023-03-23T08:41:41;97679.63;;;17.57;50.33
3260;BME280;22469;48.150;14.004;2023-03-23T08:44:07;97670.94;;;17.70;49.53
3260;BME280;22469;48.150;14.004;2023-03-23T08:46:34;97655.19;;;17.73;48.75
3260;BME280;22469;48.150;14.004;2023-03-23T08:49:00;97652.34;;;17.78;48.70
3260;BME280;22469;48.150;14.004;2023-03-23T08:51:26;97646.97;;;17.67;48.43
3260;BME280;22469;48.150;14.004;2023-03-23T08:53:53;97640.59;;;17.85;49.61
3260;BME280;22469;48.150;14.004;2023-03-23T08:56:20;97637.38;;;18.07;49.18
3260;BME280;22469;48.150;14.004;2023-03-23T08:58:46;97638.59;;;18.27;48.94
3260;BME280;22469;48.150;14.004;2023-03-23T09:01:12;97631.41;;;18.43;49.19
3260;BME280;22469;48.150;14.004;2023-03-23T09:03:38;97635.22;;;18.63;49.03
3260;BME280;22469;48.150;14.004;2023-03-23T09:06:07;97622.91;;;18.78;48.49
3260;BME280;22469;48.150;14.004;2023-03-23T09:08:34;97623.09;;;18.88;47.52
3260;BME280;22469;48.150;14.004;2023-03-23T09:11:02;97624.69;;;19.02;47.01
3260;BME280;22469;48.150;14.004;2023-03-23T09:13:28;97624.25;;;19.08;47.00
3260;BME280;22469;48.150;14.004;2023-03-23T09:15:55;97633.78;;;19.31;46.95
3260;BME280;22469;48.150;14.004;2023-03-23T09:18:21;97638.75;;;19.34;46.14
3260;BME280;22469;48.150;14.004;2023-03-23T09:20:49;97639.28;;;19.51;45.90
3260;BME280;22469;48.150;14.004;2023-03-23T09:23:16;97630.38;;;19.66;45.24
3260;BME280;22469;48.150;14.004;2023-03-23T09:25:42;97629.25;;;19.57;44.98
3260;BME280;22469;48.150;14.004;2023-03-23T09:28:08;97620.91;;;19.65;45.04
3260;BME280;22469;48.150;14.004;2023-03-23T09:30:36;97616.66;;;19.75;44.51
3260;BME280;22469;48.150;14.004;2023-03-23T09:33:04;97621.63;;;19.78;43.70
3260;BME280;22469;48.150;14.004;2023-03-23T09:35:32;97619.16;;;19.88;44.69
3260;BME280;22469;48.150;14.004;2023-03-23T09:38:00;97616.81;;;19.96;44.78
3260;BME280;22469;48.150;14.004;2023-03-23T09:40:45;97617.41;;;20.11;44.75
3260;BME280;22469;48.150;14.004;2023-03-23T09:48:54;97619.31;;;20.31;43.05
3260;BME280;22469;48.150;14.004;2023-03-23T09:51:44;97621.31;;;20.39;44.00
3260;BME280;22469;48.150;14.004;2023-03-23T09:56:45;97623.69;;;20.31;43.52
3260;BME280;22469;48.150;14.004;2023-03-23T09:59:49;97615.63;;;20.45;43.92
3260;BME280;22469;48.150;14.004;2023-03-23T10:02:34;97615.25;;;20.61;42.67
3260;BME280;22469;48.150;14.004;2023-03-23T10:07:56;97620.13;;;20.54;42.74
3260;BME280;22469;48.150;14.004;2023-03-23T10:10:35;97619.28;;;20.76;43.02
3260;BME280;22469;48.150;14.004;2023-03-23T10:16:11;97609.97;;;21.27;42.55
3260;BME280;22469;48.150;14.004;2023-03-23T10:18:44;97618.13;;;21.34;41.58
3260;BME280;22469;48.150;14.004;2023-03-23T10:21:20;97607.22;;;21.61;41.86
3260;BME280;22469;48.150;14.004;2023-03-23T10:29:16;97595.03;;;22.01;41.39
3260;BME280;22469;48.150;14.004;2023-03-23T10:32:03;97598.50;;;22.02;41.12
3260;BME280;22469;48.150;14.004;2023-03-23T10:34:55;97585.09;;;22.16;40.44
3260;BME280;22469;48.150;14.004;2023-03-23T10:37:29;97581.97;;;22.22;40.17
3260;BME280;22469;48.150;14.004;2023-03-23T10:40:04;97585.00;;;22.28;41.58
3260;BME280;22469;48.150;14.004;2023-03-23T10:42:37;97585.16;;;22.36;39.50
3260;BME280;22469;48.150;14.004;2023-03-23T10:45:20;97570.50;;;22.54;39.50
3260;BME280;22469;48.150;14.004;2023-03-23T10:50:41;97564.22;;;23.05;38.92
3260;BME280;22469;48.150;14.004;2023-03-23T10:53:22;97563.78;;;23.29;37.92
3260;BME280;22469;48.150;14.004;2023-03-23T10:55:51;97573.13;;;23.41;36.52
3260;BME280;22469;48.150;14.004;2023-03-23T10:58:33;97564.59;;;23.49;35.47
3260;BME280;22469;48.150;14.004;2023-03-23T11:01:03;97552.16;;;23.61;35.35
3260;BME280;22469;48.150;14.004;2023-03-23T11:06:06;97557.16;;;24.01;35.56
3260;BME280;22469;48.150;14.004;2023-03-23T11:08:38;97551.41;;;24.16;35.24
3260;BME280;22469;48.150;14.004;2023-03-23T11:11:18;97552.94;;;24.18;35.32
3260;BME280;22469;48.150;14.004;2023-03-23T11:13:48;97556.41;;;24.09;36.14
3260;BME280;22469;48.150;14.004;2023-03-23T11:16:31;97544.63;;;24.23;36.18
3260;BME280;22469;48.150;14.004;2023-03-23T11:19:11;97552.34;;;24.24;35.67
3260;BME280;22469;48.150;14.004;2023-03-23T11:21:40;97546.22;;;24.33;35.94
3260;BME280;22469;48.150;14.004;2023-03-23T11:24:07;97544.97;;;24.38;35.12
3260;BME280;22469;48.150;14.004;2023-03-23T11:26:34;97540.38;;;24.40;35.05
3260;BME280;22469;48.150;14.004;2023-03-23T11:29:10;97546.97;;;24.53;35.53
3260;BME280;22469;48.150;14.004;2023-03-23T11:31:44;97537.16;;;24.55;35.09
3260;BME280;22469;48.150;14.004;2023-03-23T11:34:16;97546.91;;;24.63;35.14
3260;BME280;22469;48.150;14.004;2023-03-23T11:36:53;97537.22;;;24.36;34.60
3260;BME280;22469;48.150;14.004;2023-03-23T11:39:28;97542.34;;;24.38;35.30
3260;BME280;22469;48.150;14.004;2023-03-23T11:41:57;97529.06;;;24.49;35.71
3260;BME280;22469;48.150;14.004;2023-03-23T11:44:34;97524.69;;;24.57;34.99
3260;BME280;22469;48.150;14.004;2023-03-23T11:58:13;97518.00;;;25.35;33.20
3260;BME280;22469;48.150;14.004;2023-03-23T12:01:05;97509.19;;;25.44;33.80
3260;BME280;22469;48.150;14.004;2023-03-23T12:04:25;97511.00;;;25.17;33.04
3260;BME280;22469;48.150;14.004;2023-03-23T12:10:17;97502.34;;;25.25;32.85
3260;BME280;22469;48.150;14.004;2023-03-23T12:15:45;97503.44;;;25.40;33.10
3260;BME280;22469;48.150;14.004;2023-03-23T12:23:48;97497.81;;;25.61;32.00
3260;BME280;22469;48.150;14.004;2023-03-23T12:26:33;97494.22;;;25.70;31.33
3260;BME280;22469;48.150;14.004;2023-03-23T12:35:19;97493.34;;;25.88;30.88
3260;BME280;22469;48.150;14.004;2023-03-23T12:43:00;97484.81;;;25.94;29.77
3260;BME280;22469;48.150;14.004;2023-03-23T12:45:50;97485.41;;;26.22;30.28
3260;BME280;22469;48.150;14.004;2023-03-23T13:00:05;97483.94;;;26.36;28.12
3260;BME280;22469;48.150;14.004;2023-03-23T13:02:50;97475.28;;;26.43;27.73
3260;BME280;22469;48.150;14.004;2023-03-23T13:05:43;97469.63;;;26.22;27.96
3260;BME280;22469;48.150;14.004;2023-03-23T13:08:31;97473.09;;;26.22;28.59
3260;BME280;22469;48.150;14.004;2023-03-23T13:11:14;97472.69;;;25.93;28.99
3260;BME280;22469;48.150;14.004;2023-03-23T13:13:48;97469.75;;;25.70;28.90
3260;BME280;22469;48.150;14.004;2023-03-23T13:16:51;97468.06;;;25.87;29.10
3260;BME280;22469;48.150;14.004;2023-03-23T13:19:33;97459.91;;;26.06;28.44
3260;BME280;22469;48.150;14.004;2023-03-23T13:22:28;97459.09;;;26.14;29.18
3260;BME280;22469;48.150;14.004;2023-03-23T13:25:01;97460.75;;;26.15;29.30
3260;BME280;22469;48.150;14.004;2023-03-23T13:27:29;97464.03;;;25.74;29.12
3260;BME280;22469;48.150;14.004;2023-03-23T13:29:57;97460.34;;;25.59;28.96
3260;BME280;22469;48.150;14.004;2023-03-23T13:32:35;97464.03;;;25.74;29.74
3260;BME280;22469;48.150;14.004;2023-03-23T13:35:12;97459.22;;;25.62;29.16
3260;BME280;22469;48.150;14.004;2023-03-23T13:37:49;97461.78;;;25.80;29.12
3260;BME280;22469;48.150;14.004;2023-03-23T13:40:30;97465.94;;;25.90;28.38
3260;BME280;22469;48.150;14.004;2023-03-23T13:43:00;97454.91;;;25.87;27.82
3260;BME280;22469;48.150;14.004;2023-03-23T13:48:27;97453.19;;;25.77;26.55
3260;BME280;22469;48.150;14.004;2023-03-23T13:50:56;97453.53;;;25.74;26.45
3260;BME280;22469;48.150;14.004;2023-03-23T13:53:28;97457.53;;;25.52;27.02
3260;BME280;22469;48.150;14.004;2023-03-23T13:58:49;97451.94;;;25.47;27.03
3260;BME280;22469;48.150;14.004;2023-03-23T14:01:31;97457.72;;;25.59;27.32
3260;BME280;22469;48.150;14.004;2023-03-23T14:04:03;97444.78;;;25.32;27.66
3260;BME280;22469;48.150;14.004;2023-03-23T14:06:36;97448.59;;;25.37;27.17
3260;BME280;22469;48.150;14.004;2023-03-23T14:11:58;97447.75;;;25.37;27.78
3260;BME280;22469;48.150;14.004;2023-03-23T14:14:33;97451.25;;;25.45;27.83
3260;BME280;22469;48.150;14.004;2023-03-23T14:17:13;97447.06;;;25.26;27.83
3260;BME280;22469;48.150;14.004;2023-03-23T14:19:48;97446.34;;;25.16;28.08
3260;BME280;22469;48.150;14.004;2023-03-23T14:22:19;97444.16;;;25.12;28.12
3260;BME280;22469;48.150;14.004;2023-03-23T14:24:49;97443.41;;;25.01;28.26
3260;BME280;22469;48.150;14.004;2023-03-23T14:27:16;97442.22;;;25.14;28.54
3260;BME280;22469;48.150;14.004;2023-03-23T14:29:45;97444.44;;;25.26;28.15
3260;BME280;22469;48.150;14.004;2023-03-23T14:32:17;97446.63;;;25.39;28.96
3260;BME280;22469;48.150;14.004;2023-03-23T14:34:47;97443.56;;;25.44;28.64
3260;BME280;22469;48.150;14.004;2023-03-23T14:37:14;97438.94;;;25.46;27.88
3260;BME280;22469;48.150;14.004;2023-03-23T14:39:45;97439.25;;;25.43;27.91
3260;BME280;22469;48.150;14.004;2023-03-23T14:42:15;97438.44;;;25.42;28.39
3260;BME280;22469;48.150;14.004;2023-03-23T14:44:45;97445.00;;;25.46;27.51
3260;BME280;22469;48.150;14.004;2023-03-23T14:47:27;97446.19;;;25.44;28.01
3260;BME280;22469;48.150;14.004;2023-03-23T14:49:59;97448.31;;;25.48;27.95
3260;BME280;22469;48.150;14.004;2023-03-23T14:52:28;97439.88;;;25.37;27.95
3260;BME280;22469;48.150;14.004;2023-03-23T14:55:06;97444.81;;;25.40;27.87
3260;BME280;22469;48.150;14.004;2023-03-23T14:57:43;97450.06;;;25.40;27.74